sensor_id;sensor_type;location;lat;lon;timestamp;P1;durP1;ratioP1;P2;durP2;ratioP2
75645;SDS011;64237;52.438;13.240;2023-02-28T00:01:18;4.72;;;1.60;;
75645;SDS011;64237;52.438;13.240;2023-02-28T00:03:44;5.60;;;1.60;;
75645;SDS011;64237;52.438;13.240;2023-02-28T00:06:09;5.27;;;1.53;;
75645;SDS011;64237;52.438;13.240;2023-02-28T00:08:35;4.60;;;1.58;;
75645;SDS011;64237;52.438;13.240;2023-02-28T00:11:02;5.30;;;1.65;;
75645;SDS011;64237;52.438;13.240;2023-02-28T00:13:29;4.47;;;1.52;;
75645;SDS011;64237;52.438;13.240;2023-02-28T00:15:58;5.25;;;1.40;;
75645;SDS011;64237;52.438;13.240;2023-02-28T00:18:28;3.78;;;1.42;;
75645;SDS011;64237;52.438;13.240;2023-02-28T00:20:53;4.90;;;1.40;;
75645;SDS011;64237;52.438;13.240;2023-02-28T00:23:22;4.65;;;1.90;;
75645;SDS011;64237;52.438;13.240;2023-02-28T00:25:47;3.50;;;1.50;;
75645;SDS011;64237;52.438;13.240;2023-02-28T00:28:12;3.85;;;1.60;;
75645;SDS011;64237;52.438;13.240;2023-02-28T00:30:38;5.97;;;1.90;;
75645;SDS011;64237;52.438;13.240;2023-02-28T00:33:09;6.47;;;1.90;;
75645;SDS011;64237;52.438;13.240;2023-02-28T00:35:35;6.68;;;1.92;;
75645;SDS011;64237;52.438;13.240;2023-02-28T00:38:00;6.20;;;1.90;;
75645;SDS011;64237;52.438;13.240;2023-02-28T00:40:25;5.43;;;1.95;;
75645;SDS011;64237;52.438;13.240;2023-02-28T00:42:51;5.85;;;1.80;;
75645;SDS011;64237;52.438;13.240;2023-02-28T00:45:16;6.75;;;2.13;;
75645;SDS011;64237;52.438;13.240;2023-02-28T00:47:42;7.15;;;2.40;;
75645;SDS011;64237;52.438;13.240;2023-02-28T00:50:10;6.57;;;1.85;;
75645;SDS011;64237;52.438;13.240;2023-02-28T00:52:35;10.20;;;2.13;;
75645;SDS011;64237;52.438;13.240;2023-02-28T00:55:01;5.32;;;1.90;;
75645;SDS011;64237;52.438;13.240;2023-02-28T00:57:26;5.70;;;1.63;;
75645;SDS011;64237;52.438;13.240;2023-02-28T00:59:51;5.20;;;1.92;;
75645;SDS011;64237;52.438;13.240;2023-02-28T01:02:19;5.15;;;1.88;;
75645;SDS011;64237;52.438;13.240;2023-02-28T01:04:45;6.10;;;1.83;;
75645;SDS011;64237;52.438;13.240;2023-02-28T01:07:11;7.32;;;2.30;;
75645;SDS011;64237;52.438;13.240;2023-02-28T01:09:40;6.07;;;2.20;;
75645;SDS011;64237;52.438;13.240;2023-02-28T01:12:06;6.60;;;2.30;;
75645;SDS011;64237;52.438;13.240;2023-02-28T01:14:34;5.38;;;2.22;;
75645;SDS011;64237;52.438;13.240;2023-02-28T01:17:00;7.18;;;2.60;;
75645;SDS011;64237;52.438;13.240;2023-02-28T01:19:25;6.15;;;1.92;;
75645;SDS011;64237;52.438;13.240;2023-02-28T01:21:51;5.13;;;1.90;;
75645;SDS011;64237;52.438;13.240;2023-02-28T01:24:16;9.57;;;2.45;;
75645;SDS011;64237;52.438;13.240;2023-02-28T01:26:41;5.63;;;2.13;;
75645;SDS011;64237;52.438;13.240;2023-02-28T01:29:07;7.65;;;1.88;;
75645;SDS011;64237;52.438;13.240;2023-02-28T01:31:32;6.68;;;2.10;;
75645;SDS011;64237;52.438;13.240;2023-02-28T01:34:01;6.10;;;1.95;;
75645;SDS011;64237;52.438;13.240;2023-02-28T01:36:27;6.50;;;1.98;;
75645;SDS011;64237;52.438;13.240;2023-02-28T01:38:52;5.72;;;2.15;;
75645;SDS011;64237;52.438;13.240;2023-02-28T01:41:19;4.38;;;1.70;;
75645;SDS011;64237;52.438;13.240;2023-02-28T01:46:12;6.07;;;2.20;;
75645;SDS011;64237;52.438;13.240;2023-02-28T01:48:40;6.35;;;2.22;;
75645;SDS011;64237;52.438;13.240;2023-02-28T01:51:12;7.15;;;2.40;;
75645;SDS011;64237;52.438;13.240;2023-02-28T01:53:42;8.27;;;2.42;;
75645;SDS011;64237;52.438;13.240;2023-02-28T01:56:11;5.65;;;2.05;;
75645;SDS011;64237;52.438;13.240;2023-02-28T01:58:48;9.10;;;3.10;;
75645;SDS011;64237;52.438;13.240;2023-02-28T02:01:15;7.88;;;2.13;;
75645;SDS011;64237;52.438;13.240;2023-02-28T02:03:46;7.13;;;2.25;;
75645;SDS011;64237;52.438;13.240;2023-02-28T02:06:23;5.82;;;2.08;;
75645;SDS011;64237;52.438;13.240;2023-02-28T02:08:52;8.30;;;2.42;;
75645;SDS011;64237;52.438;13.240;2023-02-28T02:11:20;5.07;;;1.77;;
75645;SDS011;64237;52.438;13.240;2023-02-28T02:24:30;8.07;;;2.50;;
75645;SDS011;64237;52.438;13.240;2023-02-28T02:27:32;6.00;;;1.83;;
75645;SDS011;64237;52.438;13.240;2023-02-28T02:43:48;6.03;;;2.10;;
75645;SDS011;64237;52.438;13.240;2023-02-28T02:46:19;6.13;;;2.10;;
75645;SDS011;64237;52.438;13.240;2023-02-28T02:48:50;6.50;;;2.08;;
75645;SDS011;64237;52.438;13.240;2023-02-28T02:51:20;4.13;;;1.58;;
75645;SDS011;64237;52.438;13.240;2023-02-28T02:56:29;7.22;;;2.38;;
75645;SDS011;64237;52.438;13.240;2023-02-28T02:59:00;5.57;;;1.80;;
75645;SDS011;64237;52.438;13.240;2023-02-28T03:01:32;6.40;;;2.20;;
75645;SDS011;64237;52.438;13.240;2023-02-28T03:04:01;4.65;;;1.90;;
75645;SDS011;64237;52.438;13.240;2023-02-28T03:06:33;6.10;;;1.80;;
75645;SDS011;64237;52.438;13.240;2023-02-28T03:08:59;5.88;;;1.92;;
75645;SDS011;64237;52.438;13.240;2023-02-28T03:11:25;5.63;;;1.50;;
75645;SDS011;64237;52.438;13.240;2023-02-28T03:21:32;5.10;;;1.70;;
75645;SDS011;64237;52.438;13.240;2023-02-28T03:24:04;4.18;;;1.50;;
75645;SDS011;64237;52.438;13.240;2023-02-28T03:26:34;6.10;;;1.88;;
75645;SDS011;64237;52.438;13.240;2023-02-28T03:29:13;7.60;;;1.90;;
75645;SDS011;64237;52.438;13.240;2023-02-28T03:31:47;4.47;;;1.60;;
75645;SDS011;64237;52.438;13.240;2023-02-28T03:34:18;5.75;;;1.92;;
75645;SDS011;64237;52.438;13.240;2023-02-28T03:36:50;4.47;;;1.70;;
75645;SDS011;64237;52.438;13.240;2023-02-28T03:39:24;4.57;;;1.80;;
75645;SDS011;64237;52.438;13.240;2023-02-28T03:41:57;5.05;;;1.85;;
75645;SDS011;64237;52.438;13.240;2023-02-28T03:44:29;8.93;;;2.90;;
75645;SDS011;64237;52.438;13.240;2023-02-28T03:47:10;8.30;;;2.65;;
75645;SDS011;64237;52.438;13.240;2023-02-28T03:49:44;12.02;;;3.03;;
75645;SDS011;64237;52.438;13.240;2023-02-28T03:54:44;8.48;;;2.67;;
75645;SDS011;64237;52.438;13.240;2023-02-28T03:57:17;5.40;;;1.80;;
75645;SDS011;64237;52.438;13.240;2023-02-28T03:59:54;6.60;;;2.20;;
75645;SDS011;64237;52.438;13.240;2023-02-28T04:02:24;7.60;;;2.33;;
75645;SDS011;64237;52.438;13.240;2023-02-28T04:04:50;5.65;;;1.73;;
75645;SDS011;64237;52.438;13.240;2023-02-28T04:07:18;6.32;;;1.60;;
75645;SDS011;64237;52.438;13.240;2023-02-28T04:09:47;4.30;;;2.08;;
75645;SDS011;64237;52.438;13.240;2023-02-28T04:12:12;5.25;;;1.77;;
75645;SDS011;64237;52.438;13.240;2023-02-28T04:14:37;5.97;;;1.80;;
75645;SDS011;64237;52.438;13.240;2023-02-28T04:17:03;7.07;;;2.10;;
75645;SDS011;64237;52.438;13.240;2023-02-28T04:19:28;4.20;;;1.63;;
75645;SDS011;64237;52.438;13.240;2023-02-28T04:21:53;4.20;;;1.70;;
75645;SDS011;64237;52.438;13.240;2023-02-28T04:24:20;4.93;;;1.80;;
75645;SDS011;64237;52.438;13.240;2023-02-28T04:26:49;7.00;;;2.60;;
75645;SDS011;64237;52.438;13.240;2023-02-28T04:29:20;6.32;;;1.90;;
75645;SDS011;64237;52.438;13.240;2023-02-28T04:31:59;5.32;;;1.65;;
75645;SDS011;64237;52.438;13.240;2023-02-28T04:34:29;5.15;;;1.67;;
75645;SDS011;64237;52.438;13.240;2023-02-28T04:36:56;5.93;;;1.77;;
75645;SDS011;64237;52.438;13.240;2023-02-28T04:39:22;4.82;;;2.03;;
75645;SDS011;64237;52.438;13.240;2023-02-28T04:41:51;3.85;;;1.63;;
75645;SDS011;64237;52.438;13.240;2023-02-28T04:44:17;9.45;;;2.00;;
75645;SDS011;64237;52.438;13.240;2023-02-28T04:46:42;7.57;;;2.10;;
75645;SDS011;64237;52.438;13.240;2023-02-28T04:49:12;5.13;;;1.85;;
75645;SDS011;64237;52.438;13.240;2023-02-28T04:51:38;6.65;;;2.20;;
75645;SDS011;64237;52.438;13.240;2023-02-28T04:54:03;6.85;;;2.00;;
75645;SDS011;64237;52.438;13.240;2023-02-28T04:56:29;4.93;;;1.60;;
75645;SDS011;64237;52.438;13.240;2023-02-28T04:58:54;5.80;;;1.80;;
75645;SDS011;64237;52.438;13.240;2023-02-28T05:01:21;5.32;;;1.80;;
75645;SDS011;64237;52.438;13.240;2023-02-28T05:03:52;4.07;;;1.73;;
75645;SDS011;64237;52.438;13.240;2023-02-28T05:06:20;4.63;;;1.80;;
75645;SDS011;64237;52.438;13.240;2023-02-28T05:08:51;5.78;;;1.77;;
75645;SDS011;64237;52.438;13.240;2023-02-28T05:11:19;6.18;;;1.90;;
75645;SDS011;64237;52.438;13.240;2023-02-28T05:13:46;8.27;;;2.50;;
75645;SDS011;64237;52.438;13.240;2023-02-28T05:16:12;5.82;;;2.30;;
75645;SDS011;64237;52.438;13.240;2023-02-28T05:18:41;4.07;;;1.83;;
75645;SDS011;64237;52.438;13.240;2023-02-28T05:23:58;6.03;;;2.03;;
75645;SDS011;64237;52.438;13.240;2023-02-28T05:26:34;5.50;;;2.10;;
75645;SDS011;64237;52.438;13.240;2023-02-28T05:29:00;7.00;;;2.65;;
75645;SDS011;64237;52.438;13.240;2023-02-28T05:31:29;11.45;;;3.15;;
75645;SDS011;64237;52.438;13.240;2023-02-28T05:33:54;10.88;;;3.00;;
75645;SDS011;64237;52.438;13.240;2023-02-28T05:36:20;10.10;;;2.90;;
75645;SDS011;64237;52.438;13.240;2023-02-28T05:38:46;11.65;;;3.35;;
75645;SDS011;64237;52.438;13.240;2023-02-28T05:41:16;26.65;;;7.55;;
75645;SDS011;64237;52.438;13.240;2023-02-28T05:43:47;19.38;;;5.68;;
75645;SDS011;64237;52.438;13.240;2023-02-28T05:46:15;16.77;;;4.95;;
75645;SDS011;64237;52.438;13.240;2023-02-28T05:48:40;10.77;;;3.38;;
75645;SDS011;64237;52.438;13.240;2023-02-28T05:51:07;10.60;;;3.28;;
75645;SDS011;64237;52.438;13.240;2023-02-28T05:53:36;7.38;;;2.45;;
75645;SDS011;64237;52.438;13.240;2023-02-28T05:56:02;8.20;;;2.58;;
75645;SDS011;64237;52.438;13.240;2023-02-28T05:58:30;7.80;;;2.50;;
75645;SDS011;64237;52.438;13.240;2023-02-28T06:00:59;8.55;;;2.30;;
75645;SDS011;64237;52.438;13.240;2023-02-28T06:03:26;7.47;;;2.40;;
75645;SDS011;64237;52.438;13.240;2023-02-28T06:05:55;10.35;;;3.05;;
75645;SDS011;64237;52.438;13.240;2023-02-28T06:08:20;6.70;;;2.28;;
75645;SDS011;64237;52.438;13.240;2023-02-28T06:10:45;7.80;;;2.75;;
75645;SDS011;64237;52.438;13.240;2023-02-28T06:13:17;6.72;;;2.35;;
75645;SDS011;64237;52.438;13.240;2023-02-28T06:15:42;7.22;;;2.38;;
75645;SDS011;64237;52.438;13.240;2023-02-28T06:18:10;7.85;;;2.60;;
75645;SDS011;64237;52.438;13.240;2023-02-28T06:20:39;8.35;;;2.40;;
75645;SDS011;64237;52.438;13.240;2023-02-28T06:23:10;7.28;;;2.50;;
75645;SDS011;64237;52.438;13.240;2023-02-28T06:25:39;6.20;;;2.30;;
75645;SDS011;64237;52.438;13.240;2023-02-28T06:28:10;7.18;;;2.42;;
75645;SDS011;64237;52.438;13.240;2023-02-28T06:30:38;7.30;;;2.30;;
75645;SDS011;64237;52.438;13.240;2023-02-28T06:33:04;5.38;;;2.00;;
75645;SDS011;64237;52.438;13.240;2023-02-28T06:35:30;8.27;;;2.47;;
75645;SDS011;64237;52.438;13.240;2023-02-28T06:37:55;6.20;;;2.13;;
75645;SDS011;64237;52.438;13.240;2023-02-28T06:40:21;6.20;;;2.17;;
75645;SDS011;64237;52.438;13.240;2023-02-28T06:42:52;5.70;;;2.00;;
75645;SDS011;64237;52.438;13.240;2023-02-28T06:45:17;6.50;;;2.33;;
75645;SDS011;64237;52.438;13.240;2023-02-28T06:47:43;7.80;;;2.40;;
75645;SDS011;64237;52.438;13.240;2023-02-28T06:50:12;7.15;;;2.55;;
75645;SDS011;64237;52.438;13.240;2023-02-28T06:52:46;7.90;;;2.40;;
75645;SDS011;64237;52.438;13.240;2023-02-28T06:55:12;7.70;;;2.50;;
75645;SDS011;64237;52.438;13.240;2023-02-28T06:57:37;8.20;;;2.65;;
75645;SDS011;64237;52.438;13.240;2023-02-28T07:00:05;8.95;;;2.20;;
75645;SDS011;64237;52.438;13.240;2023-02-28T07:02:33;7.88;;;2.58;;
75645;SDS011;64237;52.438;13.240;2023-02-28T07:05:02;10.40;;;2.80;;
75645;SDS011;64237;52.438;13.240;2023-02-28T07:07:29;6.70;;;2.20;;
75645;SDS011;64237;52.438;13.240;2023-02-28T07:09:54;9.55;;;3.15;;
75645;SDS011;64237;52.438;13.240;2023-02-28T07:12:19;9.02;;;2.72;;
75645;SDS011;64237;52.438;13.240;2023-02-28T07:14:45;6.57;;;2.67;;
75645;SDS011;64237;52.438;13.240;2023-02-28T07:17:10;6.73;;;2.37;;
75645;SDS011;64237;52.438;13.240;2023-02-28T07:19:37;7.45;;;2.60;;
75645;SDS011;64237;52.438;13.240;2023-02-28T07:22:03;6.43;;;2.30;;
75645;SDS011;64237;52.438;13.240;2023-02-28T07:24:29;7.97;;;3.00;;
75645;SDS011;64237;52.438;13.240;2023-02-28T07:26:57;9.48;;;3.13;;
75645;SDS011;64237;52.438;13.240;2023-02-28T07:29:24;8.10;;;2.97;;
75645;SDS011;64237;52.438;13.240;2023-02-28T07:31:52;8.35;;;2.97;;
75645;SDS011;64237;52.438;13.240;2023-02-28T07:34:18;8.00;;;2.88;;
75645;SDS011;64237;52.438;13.240;2023-02-28T07:36:44;8.15;;;3.00;;
75645;SDS011;64237;52.438;13.240;2023-02-28T07:39:10;7.30;;;2.65;;
75645;SDS011;64237;52.438;13.240;2023-02-28T07:41:35;7.18;;;2.13;;
75645;SDS011;64237;52.438;13.240;2023-02-28T07:44:04;9.40;;;3.03;;
75645;SDS011;64237;52.438;13.240;2023-02-28T07:46:30;10.05;;;3.20;;
75645;SDS011;64237;52.438;13.240;2023-02-28T07:49:00;10.63;;;3.08;;
75645;SDS011;64237;52.438;13.240;2023-02-28T07:51:30;8.25;;;3.45;;
75645;SDS011;64237;52.438;13.240;2023-02-28T07:53:59;9.00;;;3.25;;
75645;SDS011;64237;52.438;13.240;2023-02-28T07:56:24;10.05;;;3.40;;
75645;SDS011;64237;52.438;13.240;2023-02-28T07:58:55;10.20;;;3.73;;
75645;SDS011;64237;52.438;13.240;2023-02-28T08:01:21;7.70;;;3.53;;
75645;SDS011;64237;52.438;13.240;2023-02-28T08:03:46;7.90;;;3.00;;
75645;SDS011;64237;52.438;13.240;2023-02-28T08:06:22;10.98;;;3.15;;
75645;SDS011;64237;52.438;13.240;2023-02-28T08:08:48;7.97;;;2.70;;
75645;SDS011;64237;52.438;13.240;2023-02-28T08:11:14;7.70;;;2.53;;
75645;SDS011;64237;52.438;13.240;2023-02-28T08:13:41;7.20;;;2.40;;
75645;SDS011;64237;52.438;13.240;2023-02-28T08:16:11;7.85;;;2.85;;
75645;SDS011;64237;52.438;13.240;2023-02-28T08:18:46;4.47;;;1.80;;
75645;SDS011;64237;52.438;13.240;2023-02-28T08:21:12;5.75;;;2.00;;
75645;SDS011;64237;52.438;13.240;2023-02-28T08:23:37;6.43;;;1.90;;
75645;SDS011;64237;52.438;13.240;2023-02-28T08:26:03;4.97;;;1.98;;
75645;SDS011;64237;52.438;13.240;2023-02-28T08:28:29;6.93;;;1.92;;
75645;SDS011;64237;52.438;13.240;2023-02-28T08:30:54;5.80;;;1.73;;
75645;SDS011;64237;52.438;13.240;2023-02-28T08:33:20;4.38;;;1.50;;
75645;SDS011;64237;52.438;13.240;2023-02-28T08:35:46;5.15;;;1.33;;
75645;SDS011;64237;52.438;13.240;2023-02-28T08:38:11;4.85;;;1.50;;
75645;SDS011;64237;52.438;13.240;2023-02-28T08:40:36;4.45;;;1.70;;
75645;SDS011;64237;52.438;13.240;2023-02-28T08:43:08;3.67;;;1.23;;
75645;SDS011;64237;52.438;13.240;2023-02-28T08:45:33;3.45;;;1.27;;
75645;SDS011;64237;52.438;13.240;2023-02-28T08:47:58;3.30;;;1.20;;
75645;SDS011;64237;52.438;13.240;2023-02-28T08:50:24;1.97;;;1.00;;
75645;SDS011;64237;52.438;13.240;2023-02-28T08:52:49;5.37;;;1.30;;
75645;SDS011;64237;52.438;13.240;2023-02-28T08:55:14;3.15;;;1.17;;
75645;SDS011;64237;52.438;13.240;2023-02-28T08:57:40;3.25;;;0.80;;
75645;SDS011;64237;52.438;13.240;2023-02-28T09:00:05;2.40;;;1.10;;
75645;SDS011;64237;52.438;13.240;2023-02-28T09:02:32;4.13;;;1.08;;
75645;SDS011;64237;52.438;13.240;2023-02-28T09:04:57;3.28;;;1.10;;
75645;SDS011;64237;52.438;13.240;2023-02-28T09:07:23;3.08;;;1.02;;
75645;SDS011;64237;52.438;13.240;2023-02-28T09:09:49;5.35;;;1.20;;
75645;SDS011;64237;52.438;13.240;2023-02-28T09:12:24;4.63;;;1.40;;
75645;SDS011;64237;52.438;13.240;2023-02-28T09:14:51;1.85;;;0.95;;
75645;SDS011;64237;52.438;13.240;2023-02-28T09:17:16;3.33;;;1.25;;
75645;SDS011;64237;52.438;13.240;2023-02-28T09:19:42;4.20;;;1.10;;
75645;SDS011;64237;52.438;13.240;2023-02-28T09:22:08;3.78;;;1.30;;
75645;SDS011;64237;52.438;13.240;2023-02-28T09:24:40;3.67;;;1.30;;
75645;SDS011;64237;52.438;13.240;2023-02-28T09:27:05;4.13;;;1.27;;
75645;SDS011;64237;52.438;13.240;2023-02-28T09:29:34;3.58;;;1.20;;
75645;SDS011;64237;52.438;13.240;2023-02-28T09:31:59;2.63;;;1.20;;
75645;SDS011;64237;52.438;13.240;2023-02-28T09:34:28;2.95;;;1.13;;
75645;SDS011;64237;52.438;13.240;2023-02-28T09:36:55;4.35;;;1.40;;
75645;SDS011;64237;52.438;13.240;2023-02-28T09:39:21;4.32;;;1.30;;
75645;SDS011;64237;52.438;13.240;2023-02-28T09:41:49;3.03;;;1.20;;
75645;SDS011;64237;52.438;13.240;2023-02-28T09:44:20;3.58;;;1.33;;
75645;SDS011;64237;52.438;13.240;2023-02-28T09:46:56;3.95;;;1.25;;
75645;SDS011;64237;52.438;13.240;2023-02-28T09:49:28;3.65;;;1.40;;
75645;SDS011;64237;52.438;13.240;2023-02-28T09:52:02;3.85;;;1.40;;
75645;SDS011;64237;52.438;13.240;2023-02-28T09:54:37;3.00;;;1.20;;
75645;SDS011;64237;52.438;13.240;2023-02-28T10:00:13;2.80;;;1.20;;
75645;SDS011;64237;52.438;13.240;2023-02-28T10:05:11;6.40;;;1.53;;
75645;SDS011;64237;52.438;13.240;2023-02-28T10:10:21;5.70;;;1.38;;
75645;SDS011;64237;52.438;13.240;2023-02-28T10:12:52;3.72;;;1.40;;
75645;SDS011;64237;52.438;13.240;2023-02-28T10:15:23;2.83;;;0.93;;
75645;SDS011;64237;52.438;13.240;2023-02-28T10:17:53;4.68;;;1.45;;
75645;SDS011;64237;52.438;13.240;2023-02-28T10:20:22;3.97;;;1.30;;
75645;SDS011;64237;52.438;13.240;2023-02-28T10:23:08;3.90;;;1.33;;
75645;SDS011;64237;52.438;13.240;2023-02-28T10:25:42;2.88;;;1.25;;
75645;SDS011;64237;52.438;13.240;2023-02-28T10:28:14;5.63;;;1.30;;
75645;SDS011;64237;52.438;13.240;2023-02-28T10:30:42;2.38;;;1.00;;
75645;SDS011;64237;52.438;13.240;2023-02-28T10:33:17;3.65;;;1.30;;
75645;SDS011;64237;52.438;13.240;2023-02-28T10:35:43;2.72;;;1.25;;
75645;SDS011;64237;52.438;13.240;2023-02-28T10:38:14;5.53;;;1.60;;
75645;SDS011;64237;52.438;13.240;2023-02-28T10:40:42;3.22;;;1.23;;
75645;SDS011;64237;52.438;13.240;2023-02-28T10:43:29;5.70;;;1.83;;
75645;SDS011;64237;52.438;13.240;2023-02-28T10:48:36;5.35;;;1.45;;
75645;SDS011;64237;52.438;13.240;2023-02-28T10:51:05;3.67;;;1.25;;
75645;SDS011;64237;52.438;13.240;2023-02-28T10:53:45;2.88;;;1.50;;
75645;SDS011;64237;52.438;13.240;2023-02-28T10:56:17;4.15;;;1.30;;
75645;SDS011;64237;52.438;13.240;2023-02-28T10:58:59;2.60;;;1.10;;
75645;SDS011;64237;52.438;13.240;2023-02-28T11:01:44;3.53;;;1.15;;
75645;SDS011;64237;52.438;13.240;2023-02-28T11:09:44;3.63;;;1.40;;
75645;SDS011;64237;52.438;13.240;2023-02-28T11:15:02;5.47;;;1.40;;
75645;SDS011;64237;52.438;13.240;2023-02-28T11:17:31;4.43;;;1.15;;
75645;SDS011;64237;52.438;13.240;2023-02-28T11:19:59;4.00;;;1.33;;
75645;SDS011;64237;52.438;13.240;2023-02-28T11:22:29;5.18;;;1.70;;
75645;SDS011;64237;52.438;13.240;2023-02-28T11:24:59;4.30;;;1.40;;
75645;SDS011;64237;52.438;13.240;2023-02-28T11:29:56;5.10;;;1.23;;
75645;SDS011;64237;52.438;13.240;2023-02-28T11:32:26;6.15;;;1.58;;
75645;SDS011;64237;52.438;13.240;2023-02-28T11:35:10;3.97;;;1.40;;
75645;SDS011;64237;52.438;13.240;2023-02-28T11:37:42;4.45;;;1.50;;
75645;SDS011;64237;52.438;13.240;2023-02-28T11:40:18;3.28;;;1.40;;
75645;SDS011;64237;52.438;13.240;2023-02-28T11:46:00;2.60;;;1.17;;
75645;SDS011;64237;52.438;13.240;2023-02-28T11:51:32;4.75;;;1.45;;
75645;SDS011;64237;52.438;13.240;2023-02-28T11:56:44;4.32;;;1.60;;
75645;SDS011;64237;52.438;13.240;2023-02-28T12:14:14;2.67;;;1.40;;
75645;SDS011;64237;52.438;13.240;2023-02-28T12:27:31;7.28;;;1.90;;
75645;SDS011;64237;52.438;13.240;2023-02-28T12:30:19;5.30;;;2.05;;
75645;SDS011;64237;52.438;13.240;2023-02-28T12:32:47;4.60;;;1.98;;
75645;SDS011;64237;52.438;13.240;2023-02-28T12:35:18;4.38;;;1.58;;
75645;SDS011;64237;52.438;13.240;2023-02-28T12:40:45;4.00;;;1.73;;
75645;SDS011;64237;52.438;13.240;2023-02-28T12:43:19;5.13;;;1.80;;
75645;SDS011;64237;52.438;13.240;2023-02-28T12:45:57;4.03;;;1.60;;
75645;SDS011;64237;52.438;13.240;2023-02-28T12:48:29;5.80;;;1.80;;
75645;SDS011;64237;52.438;13.240;2023-02-28T12:51:08;7.32;;;2.58;;
75645;SDS011;64237;52.438;13.240;2023-02-28T12:56:15;5.03;;;2.17;;
75645;SDS011;64237;52.438;13.240;2023-02-28T12:58:52;5.15;;;1.80;;
75645;SDS011;64237;52.438;13.240;2023-02-28T13:06:53;5.15;;;1.70;;
75645;SDS011;64237;52.438;13.240;2023-02-28T13:09:22;4.70;;;1.95;;
75645;SDS011;64237;52.438;13.240;2023-02-28T13:11:48;5.57;;;1.80;;
75645;SDS011;64237;52.438;13.240;2023-02-28T13:14:20;4.85;;;1.88;;
75645;SDS011;64237;52.438;13.240;2023-02-28T13:19:19;6.07;;;2.03;;
75645;SDS011;64237;52.438;13.240;2023-02-28T13:21:55;5.00;;;1.50;;
75645;SDS011;64237;52.438;13.240;2023-02-28T13:29:38;5.15;;;1.67;;
75645;SDS011;64237;52.438;13.240;2023-02-28T13:35:34;6.13;;;1.70;;
75645;SDS011;64237;52.438;13.240;2023-02-28T13:39:50;4.40;;;1.75;;
75645;SDS011;64237;52.438;13.240;2023-02-28T13:47:39;6.70;;;1.60;;
75645;SDS011;64237;52.438;13.240;2023-02-28T13:50:33;4.20;;;1.80;;
75645;SDS011;64237;52.438;13.240;2023-02-28T14:06:48;6.07;;;1.85;;
75645;SDS011;64237;52.438;13.240;2023-02-28T14:11:42;3.33;;;1.53;;
75645;SDS011;64237;52.438;13.240;2023-02-28T14:14:09;6.28;;;1.80;;
75645;SDS011;64237;52.438;13.240;2023-02-28T14:16:54;5.63;;;1.88;;
75645;SDS011;64237;52.438;13.240;2023-02-28T14:19:25;6.00;;;1.90;;
75645;SDS011;64237;52.438;13.240;2023-02-28T14:22:00;4.47;;;1.70;;
75645;SDS011;64237;52.438;13.240;2023-02-28T14:27:11;4.35;;;1.63;;
75645;SDS011;64237;52.438;13.240;2023-02-28T14:30:03;5.90;;;1.92;;
75645;SDS011;64237;52.438;13.240;2023-02-28T14:37:50;5.32;;;1.73;;
75645;SDS011;64237;52.438;13.240;2023-02-28T14:40:21;5.10;;;1.73;;
75645;SDS011;64237;52.438;13.240;2023-02-28T14:43:00;7.35;;;1.73;;
75645;SDS011;64237;52.438;13.240;2023-02-28T14:45:32;4.47;;;1.75;;
75645;SDS011;64237;52.438;13.240;2023-02-28T14:48:01;3.80;;;1.67;;
75645;SDS011;64237;52.438;13.240;2023-02-28T14:50:30;5.47;;;1.90;;
75645;SDS011;64237;52.438;13.240;2023-02-28T14:52:59;3.85;;;1.60;;
75645;SDS011;64237;52.438;13.240;2023-02-28T14:55:29;4.78;;;2.03;;
75645;SDS011;64237;52.438;13.240;2023-02-28T14:57:57;4.75;;;1.80;;
75645;SDS011;64237;52.438;13.240;2023-02-28T15:00:28;7.18;;;1.70;;
75645;SDS011;64237;52.438;13.240;2023-02-28T15:02:58;5.28;;;1.70;;
75645;SDS011;64237;52.438;13.240;2023-02-28T15:08:12;4.88;;;1.70;;
75645;SDS011;64237;52.438;13.240;2023-02-28T15:10:42;5.07;;;1.83;;
75645;SDS011;64237;52.438;13.240;2023-02-28T15:13:13;5.55;;;1.70;;
75645;SDS011;64237;52.438;13.240;2023-02-28T15:15:47;5.13;;;1.67;;
75645;SDS011;64237;52.438;13.240;2023-02-28T15:18:25;6.10;;;1.70;;
75645;SDS011;64237;52.438;13.240;2023-02-28T15:21:04;6.97;;;1.85;;
75645;SDS011;64237;52.438;13.240;2023-02-28T15:23:32;6.75;;;1.80;;
75645;SDS011;64237;52.438;13.240;2023-02-28T15:26:01;5.18;;;1.80;;
75645;SDS011;64237;52.438;13.240;2023-02-28T15:28:27;5.57;;;1.55;;
75645;SDS011;64237;52.438;13.240;2023-02-28T15:30:57;3.53;;;1.45;;
75645;SDS011;64237;52.438;13.240;2023-02-28T15:33:28;5.13;;;1.88;;
75645;SDS011;64237;52.438;13.240;2023-02-28T15:36:06;4.05;;;1.52;;
75645;SDS011;64237;52.438;13.240;2023-02-28T15:38:40;6.90;;;1.98;;
75645;SDS011;64237;52.438;13.240;2023-02-28T15:41:20;5.38;;;1.88;;
75645;SDS011;64237;52.438;13.240;2023-02-28T15:43:48;5.30;;;1.63;;
75645;SDS011;64237;52.438;13.240;2023-02-28T15:46:13;4.60;;;1.65;;
75645;SDS011;64237;52.438;13.240;2023-02-28T15:48:56;6.00;;;2.05;;
75645;SDS011;64237;52.438;13.240;2023-02-28T15:51:22;5.45;;;2.13;;
75645;SDS011;64237;52.438;13.240;2023-02-28T15:53:57;8.88;;;2.03;;
75645;SDS011;64237;52.438;13.240;2023-02-28T15:59:00;7.43;;;2.10;;
75645;SDS011;64237;52.438;13.240;2023-02-28T16:01:28;7.13;;;2.00;;
75645;SDS011;64237;52.438;13.240;2023-02-28T16:04:03;4.55;;;1.58;;
75645;SDS011;64237;52.438;13.240;2023-02-28T16:06:43;6.90;;;1.85;;
75645;SDS011;64237;52.438;13.240;2023-02-28T16:09:10;5.30;;;1.70;;
75645;SDS011;64237;52.438;13.240;2023-02-28T16:11:46;6.32;;;1.92;;
75645;SDS011;64237;52.438;13.240;2023-02-28T16:14:14;5.97;;;1.80;;
75645;SDS011;64237;52.438;13.240;2023-02-28T16:16:42;7.82;;;2.53;;
75645;SDS011;64237;52.438;13.240;2023-02-28T16:19:12;5.50;;;1.70;;
75645;SDS011;64237;52.438;13.240;2023-02-28T16:21:38;7.10;;;2.10;;
75645;SDS011;64237;52.438;13.240;2023-02-28T16:24:03;10.80;;;3.05;;
75645;SDS011;64237;52.438;13.240;2023-02-28T16:26:29;9.27;;;3.28;;
75645;SDS011;64237;52.438;13.240;2023-02-28T16:28:54;8.35;;;2.88;;
75645;SDS011;64237;52.438;13.240;2023-02-28T16:31:20;7.93;;;3.17;;
75645;SDS011;64237;52.438;13.240;2023-02-28T16:33:45;11.48;;;3.30;;
75645;SDS011;64237;52.438;13.240;2023-02-28T16:36:15;8.57;;;3.53;;
75645;SDS011;64237;52.438;13.240;2023-02-28T16:38:45;13.80;;;4.15;;
75645;SDS011;64237;52.438;13.240;2023-02-28T16:41:16;12.43;;;4.68;;
75645;SDS011;64237;52.438;13.240;2023-02-28T16:43:44;20.60;;;6.75;;
75645;SDS011;64237;52.438;13.240;2023-02-28T16:46:15;20.67;;;6.65;;
75645;SDS011;64237;52.438;13.240;2023-02-28T16:48:41;17.30;;;6.20;;
75645;SDS011;64237;52.438;13.240;2023-02-28T16:51:11;19.23;;;6.40;;
75645;SDS011;64237;52.438;13.240;2023-02-28T16:53:37;18.75;;;6.72;;
75645;SDS011;64237;52.438;13.240;2023-02-28T16:56:03;17.58;;;6.10;;
75645;SDS011;64237;52.438;13.240;2023-02-28T16:58:30;20.98;;;7.05;;
75645;SDS011;64237;52.438;13.240;2023-02-28T17:00:55;19.08;;;6.88;;
75645;SDS011;64237;52.438;13.240;2023-02-28T17:03:25;17.45;;;6.47;;
75645;SDS011;64237;52.438;13.240;2023-02-28T17:05:52;15.45;;;5.80;;
75645;SDS011;64237;52.438;13.240;2023-02-28T17:08:18;15.50;;;4.60;;
75645;SDS011;64237;52.438;13.240;2023-02-28T17:10:43;16.08;;;5.07;;
75645;SDS011;64237;52.438;13.240;2023-02-28T17:13:09;14.77;;;5.75;;
75645;SDS011;64237;52.438;13.240;2023-02-28T17:15:35;29.20;;;10.02;;
75645;SDS011;64237;52.438;13.240;2023-02-28T17:18:01;15.48;;;4.97;;
75645;SDS011;64237;52.438;13.240;2023-02-28T17:20:26;11.10;;;3.45;;
75645;SDS011;64237;52.438;13.240;2023-02-28T17:22:52;14.38;;;3.20;;